Time;durP1;ratioP1;P1;durP2;ratioP2;P2;SDS_P1;SDS_P2;PMS_P1;PMS_P2;Temp;Humidity;BMP_temperature;BMP_pressure;BME280_temperature;BME280_humidity;BME280_pressure;Samples;Min_cycle;Max_cycle;Signal;HPM_P1;HPM_P2
2023/08/24 00:01:09;;;;;;;10.57;3.17;;;15.10;99.90;;;;;;5105029;28;20249;-63
2023/08/24 00:03:57;;;;;;;7.53;2.83;;;15.00;99.90;;;;;;5106277;28;20205;-63
2023/08/24 00:06:44;;;;;;;14.07;3.10;;;15.00;99.90;;;;;;5106084;28;20569;-63
2023/08/24 00:09:32;;;;;;;7.10;2.97;;;15.00;99.90;;;;;;5101964;28;20203;-63
2023/08/24 00:12:19;;;;;;;6.83;2.73;;;15.00;99.90;;;;;;5098192;28;20258;-64
2023/08/24 00:15:10;;;;;;;8.17;2.90;;;14.90;99.90;;;;;;5102715;28;20592;-63
2023/08/24 00:17:57;;;;;;;7.80;2.87;;;15.00;99.90;;;;;;5104977;28;20195;-63
2023/08/24 00:20:46;;;;;;;5.17;2.80;;;15.00;99.90;;;;;;5107034;28;20219;-63
2023/08/24 00:23:33;;;;;;;8.53;3.07;;;15.00;99.90;;;;;;5106245;28;20210;-65
2023/08/24 00:26:20;;;;;;;6.10;2.70;;;15.00;99.90;;;;;;5105820;28;20341;-63
2023/08/24 00:29:07;;;;;;;7.53;2.90;;;14.90;99.90;;;;;;5105135;28;20197;-63
2023/08/24 00:31:55;;;;;;;7.70;3.00;;;14.90;99.90;;;;;;5106420;28;20210;-63
2023/08/24 00:34:42;;;;;;;6.00;2.93;;;14.90;99.90;;;;;;5102160;28;20203;-63
2023/08/24 00:37:30;;;;;;;5.20;2.77;;;14.90;99.90;;;;;;5105488;28;20581;-63
2023/08/24 00:40:18;;;;;;;10.53;2.57;;;14.90;99.90;;;;;;5104427;28;20203;-63
2023/08/24 00:43:05;;;;;;;7.20;2.83;;;14.90;99.90;;;;;;5105067;28;20201;-64
2023/08/24 00:45:53;;;;;;;4.87;2.90;;;14.80;99.90;;;;;;5099873;28;20217;-63
2023/08/24 00:48:40;;;;;;;9.73;2.80;;;14.80;99.90;;;;;;5105413;28;20239;-63
2023/08/24 00:51:27;;;;;;;10.17;2.93;;;14.80;99.90;;;;;;5106096;28;20254;-63
2023/08/24 00:54:16;;;;;;;7.20;2.90;;;14.80;99.90;;;;;;5102646;28;20251;-63
2023/08/24 00:57:03;;;;;;;4.53;2.53;;;14.80;99.90;;;;;;5105821;28;20218;-64
2023/08/24 00:59:51;;;;;;;5.77;2.53;;;14.70;99.90;;;;;;5104113;28;20203;-64
2023/08/24 01:02:38;;;;;;;6.10;2.90;;;14.70;99.90;;;;;;5105329;28;20223;-64
2023/08/24 01:05:25;;;;;;;9.27;2.63;;;14.70;99.90;;;;;;5104749;28;20206;-64
2023/08/24 01:08:13;;;;;;;13.07;2.77;;;14.70;99.90;;;;;;5098106;28;20705;-64
2023/08/24 01:11:05;;;;;;;4.47;2.70;;;14.60;99.90;;;;;;5105973;28;20195;-63
2023/08/24 01:13:56;;;;;;;4.67;2.70;;;14.60;99.90;;;;;;5104300;28;20275;-63
2023/08/24 01:16:44;;;;;;;5.37;2.50;;;14.60;99.90;;;;;;5104580;28;20197;-63
2023/08/24 01:19:37;;;;;;;9.87;2.67;;;14.60;99.90;;;;;;5101862;28;20202;-63
2023/08/24 01:22:45;;;;;;;11.50;3.20;;;14.50;99.90;;;;;;5104283;28;20194;-64
2023/08/24 01:25:35;;;;;;;8.20;3.10;;;14.50;99.90;;;;;;5104411;28;20663;-63
2023/08/24 01:28:24;;;;;;;3.97;2.53;;;14.40;99.90;;;;;;5104401;28;20612;-63
2023/08/24 01:31:11;;;;;;;6.10;2.70;;;14.40;99.90;;;;;;5102561;28;20195;-63
2023/08/24 01:33:59;;;;;;;4.00;2.33;;;14.30;99.90;;;;;;5100818;28;20228;-63
2023/08/24 01:36:47;;;;;;;6.30;2.70;;;14.20;99.90;;;;;;5104738;28;20581;-63
2023/08/24 01:39:39;;;;;;;5.27;2.43;;;14.10;99.90;;;;;;5103846;28;20264;-63
2023/08/24 01:42:28;;;;;;;9.07;2.40;;;14.10;99.90;;;;;;5105763;27;21049;-63
2023/08/24 01:45:17;;;;;;;4.30;2.33;;;14.20;99.90;;;;;;5104625;28;20282;-63
2023/08/24 01:48:05;;;;;;;6.10;2.50;;;14.10;99.90;;;;;;5103587;28;20202;-63
2023/08/24 01:50:52;;;;;;;9.70;2.80;;;14.10;99.90;;;;;;5105357;28;20228;-63
2023/08/24 01:53:39;;;;;;;8.37;2.73;;;14.10;99.90;;;;;;5105912;28;20229;-63
2023/08/24 01:56:26;;;;;;;6.47;2.13;;;14.10;99.90;;;;;;5103526;28;20209;-64
2023/08/24 01:59:14;;;;;;;5.93;2.60;;;14.00;99.90;;;;;;5105203;27;20703;-64
2023/08/24 02:02:02;;;;;;;4.60;2.57;;;14.00;99.90;;;;;;5105030;28;20242;-63
2023/08/24 02:04:49;;;;;;;6.00;2.77;;;14.00;99.90;;;;;;5098230;28;20245;-63
2023/08/24 02:07:37;;;;;;;5.67;2.60;;;14.00;99.90;;;;;;5094707;28;20204;-65
2023/08/24 02:10:24;;;;;;;5.80;2.50;;;14.00;99.90;;;;;;5105429;28;20195;-64
2023/08/24 02:13:11;;;;;;;4.07;2.20;;;13.90;99.90;;;;;;5103079;28;20276;-63
2023/08/24 02:16:04;;;;;;;6.67;2.43;;;13.80;99.90;;;;;;5103026;27;20905;-63
2023/08/24 02:18:53;;;;;;;5.00;2.27;;;13.80;99.90;;;;;;5093843;28;20798;-64
2023/08/24 02:21:40;;;;;;;10.13;2.70;;;13.80;99.90;;;;;;5098550;28;20203;-63
2023/08/24 02:24:28;;;;;;;4.33;2.80;;;13.80;99.90;;;;;;5102784;28;20229;-63
2023/08/24 02:27:15;;;;;;;5.70;2.40;;;13.80;99.90;;;;;;5103641;28;20696;-63
2023/08/24 02:30:02;;;;;;;7.70;2.40;;;13.80;99.90;;;;;;5097408;28;20202;-63
2023/08/24 02:32:50;;;;;;;6.67;2.40;;;13.70;99.90;;;;;;5101590;28;20797;-63
2023/08/24 02:35:39;;;;;;;5.17;2.53;;;13.70;99.90;;;;;;5101113;28;20207;-64
2023/08/24 02:38:26;;;;;;;10.10;2.40;;;13.70;99.90;;;;;;5101665;28;20204;-63
2023/08/24 02:41:14;;;;;;;5.03;2.50;;;13.70;99.90;;;;;;5100990;28;20213;-63
2023/08/24 02:44:01;;;;;;;6.20;2.80;;;13.70;99.90;;;;;;5098800;28;20203;-64
2023/08/24 02:46:49;;;;;;;5.63;2.80;;;13.60;99.90;;;;;;5100725;28;20938;-64
2023/08/24 02:49:36;;;;;;;7.30;2.80;;;13.60;99.90;;;;;;5102519;28;20207;-63
2023/08/24 02:52:25;;;;;;;4.83;2.40;;;13.60;99.90;;;;;;5103327;28;20228;-63
2023/08/24 02:55:12;;;;;;;9.00;2.50;;;13.60;99.90;;;;;;5097234;28;20199;-64
2023/08/24 02:57:59;;;;;;;10.43;3.00;;;13.50;99.90;;;;;;5099410;28;20203;-65
2023/08/24 03:00:47;;;;;;;9.20;2.37;;;13.50;99.90;;;;;;5101979;28;20220;-65
2023/08/24 03:03:34;;;;;;;6.80;2.80;;;13.50;99.90;;;;;;5103350;28;20284;-64
2023/08/24 03:06:23;;;;;;;4.50;2.93;;;13.50;99.90;;;;;;5101510;28;20209;-63
2023/08/24 03:09:12;;;;;;;6.60;3.27;;;13.40;99.90;;;;;;5102391;28;20206;-65
2023/08/24 03:11:59;;;;;;;4.30;2.77;;;13.40;99.90;;;;;;5095973;28;20218;-63
2023/08/24 03:14:46;;;;;;;7.20;2.70;;;13.30;99.90;;;;;;5102130;28;20223;-64
2023/08/24 03:17:34;;;;;;;5.17;2.77;;;13.30;99.90;;;;;;5100066;28;20202;-66
2023/08/24 03:20:22;;;;;;;8.57;2.83;;;13.30;99.90;;;;;;5096209;28;20195;-63
2023/08/24 03:23:09;;;;;;;7.07;3.03;;;13.20;99.90;;;;;;5097340;28;20202;-65
2023/08/24 03:25:58;;;;;;;6.90;3.20;;;13.20;99.90;;;;;;5098366;28;20286;-63
2023/08/24 03:28:45;;;;;;;7.43;3.30;;;13.20;99.90;;;;;;5101907;28;20210;-65
2023/08/24 03:31:33;;;;;;;6.87;3.27;;;13.10;99.90;;;;;;5105668;28;20218;-63
2023/08/24 03:34:21;;;;;;;6.30;3.17;;;13.10;99.90;;;;;;5105917;28;20236;-65
2023/08/24 03:37:08;;;;;;;3.90;2.70;;;13.00;99.90;;;;;;5101650;28;20735;-63
2023/08/24 03:39:55;;;;;;;4.90;3.13;;;13.00;99.90;;;;;;5104968;28;20210;-63
2023/08/24 03:42:44;;;;;;;7.03;3.27;;;13.00;99.90;;;;;;5102534;28;20216;-64
2023/08/24 03:45:31;;;;;;;6.83;3.37;;;13.00;99.90;;;;;;5105787;28;20203;-63
2023/08/24 03:48:18;;;;;;;5.00;3.30;;;12.90;99.90;;;;;;5103693;28;20707;-64
2023/08/24 03:51:06;;;;;;;11.97;3.60;;;12.90;99.90;;;;;;5101111;28;20328;-64
2023/08/24 03:53:53;;;;;;;6.27;3.47;;;12.80;99.90;;;;;;5105603;28;20230;-63
2023/08/24 03:56:40;;;;;;;7.17;3.40;;;12.90;99.90;;;;;;5103008;28;20204;-64
2023/08/24 03:59:29;;;;;;;7.03;3.10;;;12.80;99.90;;;;;;5100704;27;20209;-63
2023/08/24 04:02:16;;;;;;;5.80;3.30;;;12.80;99.90;;;;;;5103008;28;20659;-64
2023/08/24 04:05:03;;;;;;;10.00;3.50;;;12.80;99.90;;;;;;5101604;28;20778;-64
2023/08/24 04:07:50;;;;;;;5.70;3.43;;;12.90;99.90;;;;;;5106129;28;20204;-63
2023/08/24 04:10:38;;;;;;;4.37;3.27;;;12.90;99.90;;;;;;5105476;28;21667;-63
2023/08/24 04:13:25;;;;;;;5.50;3.47;;;12.90;99.90;;;;;;5105111;28;20251;-64
2023/08/24 04:16:14;;;;;;;6.73;3.30;;;12.90;99.90;;;;;;5100000;28;20666;-64
2023/08/24 04:19:01;;;;;;;4.33;3.23;;;12.90;99.90;;;;;;5099001;28;20211;-63
2023/08/24 04:21:48;;;;;;;4.93;3.30;;;13.00;99.90;;;;;;5103369;28;20202;-65
2023/08/24 04:24:36;;;;;;;3.80;3.23;;;12.90;99.90;;;;;;5104385;28;20214;-64
2023/08/24 04:27:23;;;;;;;10.23;3.53;;;13.00;99.90;;;;;;5104364;28;20216;-64
2023/08/24 04:30:11;;;;;;;6.70;3.67;;;13.00;99.90;;;;;;5107337;28;20202;-63
2023/08/24 04:33:00;;;;;;;11.73;3.97;;;13.10;99.90;;;;;;5108572;27;20572;-63
2023/08/24 04:35:48;;;;;;;11.03;3.70;;;13.20;99.90;;;;;;5103875;28;20212;-64
2023/08/24 04:38:36;;;;;;;6.30;3.67;;;13.30;99.90;;;;;;5105735;28;20213;-64
2023/08/24 04:41:23;;;;;;;7.73;3.83;;;13.40;99.90;;;;;;5102457;28;20197;-63
2023/08/24 04:44:10;;;;;;;5.13;3.60;;;13.50;99.90;;;;;;5106945;28;20207;-65
2023/08/24 04:46:57;;;;;;;5.80;3.70;;;13.50;99.90;;;;;;5099740;28;20205;-64
2023/08/24 04:49:46;;;;;;;9.03;3.80;;;13.60;99.90;;;;;;5097711;27;20210;-64
2023/08/24 04:52:34;;;;;;;5.40;3.73;;;13.70;99.90;;;;;;5103081;28;20230;-63
2023/08/24 04:55:21;;;;;;;8.47;4.33;;;13.80;99.90;;;;;;5102319;28;20232;-63
2023/08/24 04:58:09;;;;;;;10.37;4.87;;;13.90;99.90;;;;;;5104068;28;20241;-64
2023/08/24 05:00:56;;;;;;;10.17;4.13;;;14.00;99.90;;;;;;5105427;28;20209;-64
2023/08/24 05:03:43;;;;;;;8.43;4.10;;;14.10;99.90;;;;;;5102705;28;20236;-63
2023/08/24 05:06:32;;;;;;;5.83;4.17;;;14.20;99.90;;;;;;5102902;28;20716;-64
2023/08/24 05:09:19;;;;;;;8.07;4.20;;;14.30;99.90;;;;;;5102444;28;20217;-64
2023/08/24 05:12:07;;;;;;;12.07;4.40;;;14.50;99.90;;;;;;5104126;28;20206;-64
2023/08/24 05:14:54;;;;;;;11.17;5.90;;;14.60;99.90;;;;;;5100230;28;20212;-64
2023/08/24 05:17:42;;;;;;;9.20;5.87;;;14.80;99.90;;;;;;5105298;28;20209;-64
2023/08/24 05:20:29;;;;;;;38.27;23.50;;;15.00;99.90;;;;;;5103338;28;20194;-64
2023/08/24 05:23:18;;;;;;;40.17;24.10;;;15.20;99.90;;;;;;5103708;28;20207;-66
2023/08/24 05:26:05;;;;;;;49.13;28.77;;;15.40;99.90;;;;;;5100321;28;20568;-64
2023/08/24 05:28:53;;;;;;;48.70;26.60;;;15.70;99.90;;;;;;5101871;28;20273;-64
2023/08/24 05:31:40;;;;;;;43.60;28.83;;;15.90;99.90;;;;;;5100799;28;20209;-64
2023/08/24 05:34:28;;;;;;;44.77;26.70;;;16.10;99.90;;;;;;5103064;28;20263;-65
2023/08/24 05:37:15;;;;;;;43.43;25.47;;;16.30;99.90;;;;;;5103299;28;20204;-65
2023/08/24 05:40:05;;;;;;;42.13;25.10;;;16.40;99.90;;;;;;5097499;28;20626;-64
2023/08/24 05:42:53;;;;;;;42.60;24.37;;;16.60;99.90;;;;;;5102693;28;20203;-64
2023/08/24 05:45:40;;;;;;;42.33;24.47;;;16.80;99.90;;;;;;5101862;28;20310;-66
2023/08/24 05:48:29;;;;;;;38.57;23.00;;;17.00;99.90;;;;;;5101074;28;20206;-64
2023/08/24 05:51:16;;;;;;;34.93;22.00;;;17.20;99.90;;;;;;5103366;28;20308;-66
2023/08/24 05:54:03;;;;;;;33.60;22.00;;;17.30;99.90;;;;;;5101757;28;20230;-64
2023/08/24 05:56:52;;;;;;;32.40;21.60;;;17.50;99.90;;;;;;5102701;28;20209;-64
2023/08/24 05:59:39;;;;;;;31.60;20.70;;;17.60;99.90;;;;;;5104083;28;20201;-64
2023/08/24 06:02:26;;;;;;;34.97;21.87;;;17.80;99.90;;;;;;5102436;28;20782;-64
2023/08/24 06:05:13;;;;;;;34.57;21.77;;;17.80;99.90;;;;;;5102803;28;20200;-65
2023/08/24 06:08:01;;;;;;;37.90;21.33;;;17.90;99.90;;;;;;5102055;28;20207;-65
2023/08/24 06:10:48;;;;;;;40.17;21.60;;;18.10;99.90;;;;;;5101980;28;20212;-65
2023/08/24 06:13:37;;;;;;;38.33;22.87;;;18.10;99.90;;;;;;5102274;28;20206;-65
2023/08/24 06:16:24;;;;;;;36.33;23.13;;;18.20;99.90;;;;;;5099978;28;20225;-64
2023/08/24 06:19:11;;;;;;;37.47;22.83;;;18.30;99.90;;;;;;5094011;28;20204;-65
2023/08/24 06:21:58;;;;;;;35.93;22.53;;;18.40;99.90;;;;;;5102925;28;20206;-64
2023/08/24 06:24:46;;;;;;;36.03;22.13;;;18.50;99.90;;;;;;5103699;28;20196;-65
2023/08/24 06:27:33;;;;;;;39.40;22.47;;;18.60;99.90;;;;;;5098418;28;20200;-64
2023/08/24 06:30:22;;;;;;;39.33;23.17;;;18.60;99.90;;;;;;5103446;28;20661;-64
2023/08/24 06:33:10;;;;;;;41.03;21.43;;;18.60;99.90;;;;;;5097693;28;20199;-64
2023/08/24 06:35:58;;;;;;;32.13;20.73;;;18.70;99.90;;;;;;5102046;28;20294;-64
2023/08/24 06:38:45;;;;;;;35.60;20.43;;;18.90;99.90;;;;;;5098831;28;20872;-65
2023/08/24 06:41:34;;;;;;;36.90;21.70;;;19.00;99.90;;;;;;5104415;28;20680;-64
2023/08/24 06:44:22;;;;;;;31.53;20.60;;;19.00;99.90;;;;;;5099500;28;20197;-64
2023/08/24 06:47:10;;;;;;;37.57;20.43;;;19.00;99.90;;;;;;5099114;28;20202;-64
2023/08/24 06:49:57;;;;;;;32.43;19.47;;;19.30;99.90;;;;;;5102285;28;20205;-64
2023/08/24 06:52:45;;;;;;;32.40;19.57;;;19.50;99.90;;;;;;5103868;28;20215;-64
2023/08/24 06:55:32;;;;;;;30.67;19.40;;;19.60;99.90;;;;;;5094919;28;20215;-64
2023/08/24 06:58:19;;;;;;;36.17;18.73;;;19.70;99.90;;;;;;5100087;28;20199;-65
2023/08/24 07:01:07;;;;;;;28.20;17.90;;;19.80;99.90;;;;;;5104197;28;20230;-64
2023/08/24 07:03:55;;;;;;;27.40;15.83;;;20.00;99.90;;;;;;5098318;28;20208;-64
2023/08/24 07:06:43;;;;;;;26.47;16.03;;;20.10;99.90;;;;;;5097687;28;20571;-64
2023/08/24 07:09:31;;;;;;;29.67;16.37;;;20.20;99.90;;;;;;5098449;28;20206;-65
2023/08/24 07:12:18;;;;;;;23.67;15.17;;;20.40;99.90;;;;;;5097539;28;20199;-64
2023/08/24 07:15:06;;;;;;;28.13;14.83;;;20.50;99.90;;;;;;5103477;28;20640;-66
2023/08/24 07:17:53;;;;;;;22.30;14.70;;;20.70;99.90;;;;;;5102915;28;20214;-65
2023/08/24 07:20:42;;;;;;;25.77;15.40;;;20.70;99.90;;;;;;5099738;28;20199;-65
2023/08/24 07:23:29;;;;;;;26.07;15.03;;;20.80;99.90;;;;;;5102277;28;20664;-65
2023/08/24 07:26:16;;;;;;;25.67;15.27;;;20.80;99.90;;;;;;5104129;28;20798;-64
2023/08/24 07:29:04;;;;;;;23.43;14.03;;;20.80;99.90;;;;;;5104141;28;20278;-65
2023/08/24 07:31:51;;;;;;;21.03;12.80;;;21.00;99.90;;;;;;5103737;28;20684;-65
2023/08/24 07:34:38;;;;;;;26.13;14.93;;;21.00;99.90;;;;;;5102696;28;20230;-65
2023/08/24 07:37:27;;;;;;;22.83;13.67;;;21.10;99.90;;;;;;5103854;28;20232;-65
2023/08/24 07:40:14;;;;;;;22.67;12.70;;;21.40;99.90;;;;;;5099840;28;20709;-65
2023/08/24 07:43:02;;;;;;;24.13;13.40;;;21.80;99.90;;;;;;5100874;28;20236;-65
2023/08/24 07:45:49;;;;;;;22.13;11.90;;;22.10;99.90;;;;;;5102183;28;20210;-66
2023/08/24 07:48:36;;;;;;;21.00;12.70;;;22.40;99.90;;;;;;5104367;28;20206;-65
2023/08/24 07:51:23;;;;;;;22.77;12.53;;;22.60;99.90;;;;;;5103872;28;20223;-65
2023/08/24 07:54:12;;;;;;;22.37;12.30;;;22.60;99.90;;;;;;5103036;28;20199;-65
2023/08/24 07:56:59;;;;;;;24.27;12.90;;;22.30;99.90;;;;;;5096831;28;20207;-67
2023/08/24 07:59:46;;;;;;;19.33;11.80;;;22.30;99.90;;;;;;5104034;28;20564;-65
2023/08/24 08:02:34;;;;;;;20.67;12.00;;;22.70;99.90;;;;;;5103527;28;20603;-65
2023/08/24 08:05:22;;;;;;;24.43;11.23;;;23.00;99.90;;;;;;5098146;28;20204;-65
2023/08/24 08:08:09;;;;;;;20.92;10.85;;;23.40;99.90;;;;;;5098627;28;20907;-65
2023/08/24 08:11:02;;;;;;;26.67;12.30;;;23.50;99.90;;;;;;5102778;28;20214;-65
2023/08/24 08:13:49;;;;;;;21.80;11.07;;;23.40;99.90;;;;;;5100589;28;20230;-66
2023/08/24 08:16:38;;;;;;;13.80;9.20;;;23.60;99.90;;;;;;5102719;28;20207;-65
2023/08/24 08:19:27;;;;;;;19.25;9.18;;;23.70;99.90;;;;;;5101793;28;20203;-65
2023/08/24 08:22:14;;;;;;;16.60;9.65;;;23.80;99.90;;;;;;5106917;28;20200;-65
2023/08/24 08:25:02;;;;;;;14.50;7.97;;;24.00;99.90;;;;;;5103340;28;20276;-67
2023/08/24 08:27:51;;;;;;;15.90;8.63;;;24.10;99.90;;;;;;5109796;28;20372;-65
2023/08/24 08:30:38;;;;;;;18.75;9.82;;;24.00;99.90;;;;;;5108570;28;20195;-66
2023/08/24 08:33:25;;;;;;;12.77;8.35;;;23.90;99.90;;;;;;5108698;28;20210;-65
2023/08/24 08:36:12;;;;;;;9.90;5.45;;;23.80;99.90;;;;;;5104094;28;20644;-65
2023/08/24 08:38:59;;;;;;;11.45;4.72;;;23.60;99.90;;;;;;5108707;28;20206;-65
2023/08/24 08:41:47;;;;;;;11.50;5.18;;;23.70;99.90;;;;;;5095794;28;20195;-65
2023/08/24 08:44:35;;;;;;;14.60;5.85;;;24.20;99.90;;;;;;5105710;28;20187;-65
2023/08/24 08:47:22;;;;;;;9.07;4.93;;;24.40;99.90;;;;;;5103822;28;20206;-66
2023/08/24 08:50:10;;;;;;;8.98;5.10;;;25.00;99.90;;;;;;5103097;28;20199;-67
2023/08/24 08:52:58;;;;;;;12.57;4.70;;;25.20;93.90;;;;;;5106507;28;20223;-65
2023/08/24 08:55:45;;;;;;;7.88;4.28;;;24.70;92.10;;;;;;5108361;28;20274;-66
2023/08/24 08:58:33;;;;;;;8.10;4.13;;;25.20;93.30;;;;;;5106249;28;20200;-65
2023/08/24 09:01:22;;;;;;;7.40;4.05;;;25.30;84.10;;;;;;5103905;27;20205;-66
2023/08/24 09:04:09;;;;;;;8.32;3.70;;;25.40;91.70;;;;;;5107017;28;20237;-65
2023/08/24 09:06:56;;;;;;;7.45;3.90;;;25.70;85.40;;;;;;5103864;27;20424;-66
2023/08/24 09:09:44;;;;;;;5.00;3.30;;;26.10;83.20;;;;;;5108160;27;20211;-65
2023/08/24 09:12:33;;;;;;;6.53;3.30;;;26.20;76.80;;;;;;5108482;27;20198;-65
2023/08/24 09:15:27;;;;;;;7.05;3.20;;;26.10;69.60;;;;;;5104196;27;20563;-65
2023/08/24 09:18:15;;;;;;;8.73;3.90;;;26.10;74.60;;;;;;5107546;28;20200;-65
2023/08/24 09:21:09;;;;;;;6.97;3.95;;;25.70;76.50;;;;;;5105129;27;20260;-65
2023/08/24 09:23:56;;;;;;;7.75;4.20;;;25.60;75.70;;;;;;5107308;27;20202;-66
2023/08/24 09:26:44;;;;;;;12.73;3.50;;;25.90;71.60;;;;;;5105394;28;20231;-65
2023/08/24 09:29:31;;;;;;;7.32;3.40;;;26.10;72.00;;;;;;5103677;27;20285;-65
2023/08/24 09:32:23;;;;;;;6.78;3.42;;;25.90;74.40;;;;;;5103980;28;20203;-65
2023/08/24 09:35:12;;;;;;;8.00;3.70;;;26.00;69.90;;;;;;5101311;27;20569;-65
2023/08/24 09:38:00;;;;;;;7.10;3.50;;;26.10;67.10;;;;;;5111136;27;20196;-65
2023/08/24 09:40:48;;;;;;;5.47;3.40;;;26.20;64.50;;;;;;5105203;28;20286;-65
2023/08/24 09:43:35;;;;;;;5.90;3.20;;;26.10;66.80;;;;;;5104297;28;20210;-65
2023/08/24 09:46:25;;;;;;;4.03;2.97;;;26.40;65.50;;;;;;5103209;28;20214;-65
2023/08/24 09:49:12;;;;;;;6.43;3.40;;;26.80;73.70;;;;;;5104961;27;20263;-65
2023/08/24 09:52:01;;;;;;;6.45;3.08;;;27.10;65.50;;;;;;5103684;28;20226;-65
2023/08/24 09:54:48;;;;;;;6.00;2.70;;;26.60;61.70;;;;;;5103178;28;20216;-65
2023/08/24 09:57:39;;;;;;;6.25;3.00;;;26.90;64.40;;;;;;5103238;28;20608;-65
2023/08/24 10:00:27;;;;;;;5.95;3.40;;;26.70;60.10;;;;;;5105498;27;20741;-65
2023/08/24 10:03:16;;;;;;;6.75;3.20;;;26.90;59.50;;;;;;5102851;28;20226;-65
2023/08/24 10:06:03;;;;;;;4.72;3.40;;;27.10;61.70;;;;;;5106039;28;20203;-66
2023/08/24 10:09:00;;;;;;;5.13;3.22;;;27.60;59.90;;;;;;5104522;27;20211;-65
2023/08/24 10:11:49;;;;;;;4.00;3.00;;;27.50;58.40;;;;;;5106939;27;20725;-65
2023/08/24 10:14:40;;;;;;;7.57;3.42;;;27.00;61.30;;;;;;5103896;28;20206;-66
2023/08/24 10:17:27;;;;;;;5.95;3.60;;;27.10;56.10;;;;;;5102478;27;20921;-65
2023/08/24 10:20:15;;;;;;;12.63;3.40;;;27.20;59.20;;;;;;5103835;27;20191;-65
2023/08/24 10:23:02;;;;;;;7.60;3.33;;;27.40;60.70;;;;;;5102641;28;20191;-65
2023/08/24 10:25:51;;;;;;;8.18;3.53;;;27.40;58.50;;;;;;5102884;27;20279;-65
2023/08/24 10:28:38;;;;;;;7.30;3.53;;;27.30;60.70;;;;;;5099928;27;20195;-65
2023/08/24 10:31:26;;;;;;;5.43;3.08;;;27.60;63.00;;;;;;5103799;27;20203;-65
2023/08/24 10:34:13;;;;;;;7.22;3.13;;;28.20;59.70;;;;;;5098192;28;20210;-64
2023/08/24 10:37:08;;;;;;;7.05;3.90;;;28.70;60.00;;;;;;5097103;27;20214;-65
2023/08/24 10:39:55;;;;;;;6.47;3.45;;;28.10;55.50;;;;;;5102263;28;20333;-65
2023/08/24 10:42:47;;;;;;;6.13;3.05;;;28.30;57.30;;;;;;5104055;28;20203;-65
2023/08/24 10:45:57;;;;;;;5.82;3.08;;;28.30;57.80;;;;;;5098412;28;20662;-65
2023/08/24 10:49:00;;;;;;;7.60;3.38;;;28.60;58.00;;;;;;5104576;28;20312;-65
2023/08/24 10:51:48;;;;;;;7.82;3.28;;;28.70;56.40;;;;;;5099838;28;20727;-64
2023/08/24 10:54:35;;;;;;;8.13;3.40;;;28.60;52.90;;;;;;5099679;28;20697;-65
2023/08/24 10:57:24;;;;;;;13.30;3.63;;;28.30;52.70;;;;;;5097806;27;20306;-64
2023/08/24 11:00:13;;;;;;;7.93;4.07;;;27.70;55.30;;;;;;5097736;28;20200;-64
2023/08/24 11:03:00;;;;;;;7.90;3.40;;;27.40;55.10;;;;;;5095974;27;20995;-64
2023/08/24 11:05:52;;;;;;;6.47;3.45;;;27.30;56.80;;;;;;5099426;28;20988;-64
2023/08/24 11:08:45;;;;;;;7.38;3.70;;;27.00;55.90;;;;;;5097111;28;20210;-65
2023/08/24 11:11:33;;;;;;;9.95;3.80;;;27.30;58.50;;;;;;5098510;28;20202;-64
2023/08/24 11:14:22;;;;;;;6.82;3.97;;;27.90;56.50;;;;;;5092462;28;20509;-65
2023/08/24 11:17:20;;;;;;;9.32;4.38;;;27.10;55.10;;;;;;5097154;27;20711;-65
2023/08/24 11:20:08;;;;;;;9.55;3.88;;;27.70;58.00;;;;;;5100175;28;20199;-64
2023/08/24 11:22:56;;;;;;;7.10;3.88;;;28.20;56.80;;;;;;5101169;28;20210;-64
2023/08/24 11:25:43;;;;;;;7.35;3.95;;;28.90;53.20;;;;;;5101455;28;20198;-64
2023/08/24 11:28:31;;;;;;;12.52;4.68;;;27.90;52.90;;;;;;5099151;28;20210;-66
2023/08/24 11:31:18;;;;;;;8.10;3.58;;;28.00;54.40;;;;;;5095828;28;20208;-64
2023/08/24 11:34:08;;;;;;;5.45;3.50;;;28.30;60.90;;;;;;5103101;28;20207;-64
2023/08/24 11:36:55;;;;;;;6.30;3.50;;;28.10;54.70;;;;;;5099137;28;20226;-64
2023/08/24 11:39:46;;;;;;;6.85;3.58;;;28.40;57.30;;;;;;5101878;28;20202;-64
2023/08/24 11:42:37;;;;;;;7.82;3.92;;;27.90;54.30;;;;;;5096733;28;20211;-64
2023/08/24 11:45:24;;;;;;;8.23;3.92;;;28.10;56.60;;;;;;5103597;28;20191;-64
2023/08/24 11:48:11;;;;;;;8.40;4.03;;;28.10;57.60;;;;;;5093047;28;20199;-64
2023/08/24 11:51:00;;;;;;;6.93;3.60;;;28.30;54.60;;;;;;5100231;28;20199;-64
2023/08/24 11:53:47;;;;;;;7.65;3.90;;;28.50;52.70;;;;;;5101220;28;20195;-66
2023/08/24 11:56:35;;;;;;;8.45;3.55;;;28.70;50.80;;;;;;5099165;28;20583;-65
2023/08/24 11:59:22;;;;;;;6.88;3.28;;;29.00;52.00;;;;;;5096784;28;20239;-64
2023/08/24 12:02:10;;;;;;;13.35;3.67;;;29.50;54.10;;;;;;5101775;27;20345;-64
2023/08/24 12:04:58;;;;;;;7.55;3.50;;;29.80;51.80;;;;;;5106172;27;20214;-64
2023/08/24 12:07:48;;;;;;;8.00;3.78;;;29.50;51.50;;;;;;5100579;28;20221;-64
2023/08/24 12:10:35;;;;;;;7.03;4.10;;;29.50;51.50;;;;;;5100949;28;20227;-64
2023/08/24 12:13:23;;;;;;;11.77;3.35;;;29.20;52.30;;;;;;5101999;28;20210;-66
2023/08/24 12:16:11;;;;;;;7.38;3.22;;;28.00;50.80;;;;;;5105221;27;20694;-64
2023/08/24 12:19:02;;;;;;;7.25;3.13;;;28.60;50.20;;;;;;5100551;27;20199;-64
2023/08/24 12:21:51;;;;;;;5.18;3.05;;;29.10;52.80;;;;;;5099361;27;20234;-65
2023/08/24 12:24:44;;;;;;;5.95;3.08;;;29.10;54.50;;;;;;5102054;27;20206;-65
2023/08/24 12:27:31;;;;;;;6.88;3.15;;;29.80;50.20;;;;;;5099147;28;20203;-65
2023/08/24 12:30:19;;;;;;;8.32;3.33;;;29.70;47.30;;;;;;5103502;27;20222;-65
2023/08/24 12:33:06;;;;;;;5.07;3.20;;;29.60;47.50;;;;;;5106608;27;20195;-64
2023/08/24 12:35:55;;;;;;;5.90;3.20;;;28.50;48.50;;;;;;5099875;27;20223;-64
2023/08/24 12:38:44;;;;;;;8.88;3.35;;;28.30;48.30;;;;;;5104040;28;20203;-65
2023/08/24 12:41:33;;;;;;;8.63;3.20;;;28.40;48.30;;;;;;5100814;27;20282;-64
2023/08/24 12:44:20;;;;;;;5.47;3.38;;;28.80;49.80;;;;;;5092085;28;20208;-64
2023/08/24 12:47:07;;;;;;;8.75;3.78;;;29.00;47.10;;;;;;5101596;28;20293;-64
2023/08/24 12:49:55;;;;;;;9.80;3.20;;;29.60;50.00;;;;;;5101486;27;20196;-65
2023/08/24 12:52:42;;;;;;;9.70;3.40;;;29.60;46.40;;;;;;5098591;28;20602;-64
2023/08/24 12:55:29;;;;;;;9.07;4.13;;;30.10;49.30;;;;;;5097557;28;20202;-65
2023/08/24 12:58:19;;;;;;;7.43;3.95;;;30.50;52.90;;;;;;5099212;28;20210;-64
2023/08/24 13:01:07;;;;;;;6.75;3.67;;;31.30;49.20;;;;;;5102676;28;20203;-65
2023/08/24 13:03:55;;;;;;;7.38;3.80;;;31.00;49.00;;;;;;5095590;28;20210;-65
2023/08/24 13:06:42;;;;;;;8.00;3.80;;;30.80;50.80;;;;;;5096544;28;20530;-64
2023/08/24 13:09:29;;;;;;;16.10;3.72;;;31.10;50.00;;;;;;5096737;28;20210;-65
2023/08/24 13:12:16;;;;;;;5.97;3.03;;;31.20;48.80;;;;;;5101059;28;20199;-64
2023/08/24 13:15:05;;;;;;;6.57;3.35;;;30.50;45.10;;;;;;5103004;28;20697;-64
2023/08/24 13:17:53;;;;;;;9.25;3.28;;;30.00;45.70;;;;;;5101540;28;20725;-65
2023/08/24 13:20:40;;;;;;;7.88;3.95;;;30.40;46.80;;;;;;5104284;28;20188;-64
2023/08/24 13:23:27;;;;;;;8.80;4.18;;;30.70;46.40;;;;;;5102425;28;20210;-64
2023/08/24 13:26:21;;;;;;;6.53;3.90;;;30.90;45.60;;;;;;5105241;28;20195;-63
2023/08/24 13:29:08;;;;;;;11.27;4.43;;;30.10;48.80;;;;;;5101390;28;20274;-65
2023/08/24 13:31:57;;;;;;;7.30;3.85;;;29.40;48.90;;;;;;5105933;28;20202;-64
2023/08/24 13:34:44;;;;;;;8.95;4.18;;;28.80;51.10;;;;;;5103513;28;20195;-64
2023/08/24 13:37:31;;;;;;;8.85;4.03;;;29.30;50.60;;;;;;5102408;28;20261;-64
2023/08/24 13:40:18;;;;;;;9.88;4.22;;;30.00;50.90;;;;;;5102512;28;20351;-64
2023/08/24 13:43:06;;;;;;;7.35;3.90;;;30.40;51.00;;;;;;5099887;28;20206;-65
2023/08/24 13:45:53;;;;;;;9.02;3.97;;;29.70;46.70;;;;;;5095217;28;20200;-64
2023/08/24 13:48:41;;;;;;;7.07;4.00;;;29.50;48.70;;;;;;5103137;28;20585;-64
2023/08/24 13:51:29;;;;;;;6.25;3.45;;;29.70;46.40;;;;;;5094033;28;20227;-64
2023/08/24 13:54:16;;;;;;;9.43;3.72;;;29.80;49.20;;;;;;5103588;28;20207;-63
2023/08/24 13:57:03;;;;;;;7.35;3.67;;;29.90;47.60;;;;;;5099020;28;20698;-63
2023/08/24 13:59:51;;;;;;;8.48;4.20;;;30.40;51.10;;;;;;5097015;28;20243;-64
2023/08/24 14:02:38;;;;;;;8.82;4.15;;;30.60;48.20;;;;;;5103999;28;20293;-64
2023/08/24 14:05:27;;;;;;;11.75;3.90;;;30.60;46.70;;;;;;5098432;28;20199;-64
2023/08/24 14:08:14;;;;;;;9.27;3.97;;;30.60;49.10;;;;;;5096119;28;20225;-64
2023/08/24 14:11:01;;;;;;;7.28;4.07;;;30.40;47.40;;;;;;5103321;28;20195;-63
2023/08/24 14:13:49;;;;;;;9.18;3.75;;;30.50;48.60;;;;;;5104113;28;20211;-64
2023/08/24 14:16:36;;;;;;;8.00;3.35;;;30.70;45.50;;;;;;5096340;28;20222;-65
2023/08/24 14:19:23;;;;;;;6.07;3.53;;;30.60;45.30;;;;;;5098149;28;20207;-64
2023/08/24 14:22:12;;;;;;;7.20;3.50;;;30.50;43.50;;;;;;5096711;28;20260;-64
2023/08/24 14:24:59;;;;;;;9.88;3.35;;;30.00;50.10;;;;;;5101790;28;20658;-63
2023/08/24 14:27:46;;;;;;;8.98;3.70;;;30.60;45.60;;;;;;5099726;28;20206;-64